createdAt,value
2019-03-27T00:01:19.901Z,95.10
2019-03-27T00:03:47.893Z,94.80
2019-03-27T00:06:36.283Z,94.90
2019-03-27T00:09:07.583Z,94.80
2019-03-27T00:11:35.677Z,94.70
2019-03-27T00:14:03.708Z,94.90
2019-03-27T00:16:31.820Z,94.80
2019-03-27T00:18:59.880Z,94.70
2019-03-27T00:21:31.089Z,94.80
2019-03-27T00:23:59.066Z,95.10
2019-03-27T00:26:27.271Z,94.80
2019-03-27T00:28:55.301Z,94.80
2019-03-27T00:31:23.207Z,94.90
2019-03-27T00:34:10.313Z,94.90
2019-03-27T00:36:38.569Z,94.70
2019-03-27T00:39:06.945Z,94.70
2019-03-27T00:41:34.979Z,94.50
2019-03-27T00:44:22.242Z,94.70
2019-03-27T00:47:03.097Z,94.80
2019-03-27T00:49:31.524Z,94.80
2019-03-27T00:51:59.546Z,94.80
2019-03-27T00:54:27.503Z,94.70
2019-03-27T00:56:55.765Z,94.70
2019-03-27T00:59:23.934Z,94.80
2019-03-27T01:01:52.092Z,94.80
2019-03-27T01:04:39.319Z,94.60
2019-03-27T01:07:07.389Z,94.70
2019-03-27T01:09:35.416Z,94.90
2019-03-27T01:12:03.675Z,95.20
2019-03-27T01:14:51.243Z,95.10
2019-03-27T01:17:19.348Z,95.10
2019-03-27T01:19:47.447Z,95.00
2019-03-27T01:22:15.551Z,94.90
2019-03-27T01:24:43.734Z,95.00
2019-03-27T01:27:11.876Z,94.90
2019-03-27T01:29:59.233Z,94.80
2019-03-27T01:32:27.401Z,95.20
2019-03-27T01:34:55.508Z,95.00
2019-03-27T01:37:23.578Z,94.70
2019-03-27T01:39:51.631Z,95.00
2019-03-27T01:42:19.743Z,95.00
2019-03-27T01:44:47.808Z,95.10
2019-03-27T01:47:35.064Z,95.10
2019-03-27T01:50:03.176Z,94.80
2019-03-27T01:52:31.079Z,94.80
2019-03-27T01:54:59.199Z,94.50
2019-03-27T01:57:27.575Z,95.00
2019-03-27T01:59:55.592Z,94.90
2019-03-27T02:02:23.640Z,95.10
2019-03-27T02:04:51.746Z,95.00
2019-03-27T02:07:19.921Z,94.70
2019-03-27T02:09:47.955Z,94.80
2019-03-27T02:12:15.997Z,94.90
2019-03-27T02:14:44.463Z,94.70
2019-03-27T02:17:12.529Z,94.80
2019-03-27T02:19:40.736Z,95.20
2019-03-27T02:22:09.221Z,95.40
2019-03-27T02:24:37.517Z,95.00
2019-03-27T02:27:05.902Z,94.80
2019-03-27T02:29:33.927Z,94.70
2019-03-27T02:32:01.989Z,94.90
2019-03-27T02:34:30.232Z,95.50
2019-03-27T02:37:17.627Z,94.90
2019-03-27T02:39:45.789Z,95.10
2019-03-27T02:42:14.066Z,95.00
2019-03-27T02:44:42.173Z,94.80
2019-03-27T02:47:10.139Z,95.00
2019-03-27T02:49:57.284Z,95.00
2019-03-27T02:52:25.625Z,95.00
2019-03-27T02:54:53.828Z,94.80
2019-03-27T02:57:22.167Z,94.90
2019-03-27T02:59:50.197Z,95.40
2019-03-27T03:02:18.438Z,95.00
2019-03-27T03:04:46.593Z,95.00
2019-03-27T03:07:33.926Z,95.00
2019-03-27T03:10:02.344Z,95.30
2019-03-27T03:12:30.331Z,95.10
2019-03-27T03:14:58.561Z,95.10
2019-03-27T03:17:26.892Z,95.40
2019-03-27T03:19:55.005Z,95.00
2019-03-27T03:22:23.040Z,95.10
2019-03-27T03:24:51.082Z,95.30
2019-03-27T03:27:19.339Z,95.30
2019-03-27T03:29:47.449Z,95.30
2019-03-27T03:32:15.427Z,95.30
2019-03-27T03:34:43.437Z,95.70
2019-03-27T03:37:11.936Z,95.70
2019-03-27T03:39:39.971Z,95.40
2019-03-27T03:42:07.971Z,95.40
2019-03-27T03:44:36.008Z,95.60
2019-03-27T03:47:04.283Z,95.60
2019-03-27T03:49:32.573Z,95.70
2019-03-27T03:52:00.609Z,95.60
2019-03-27T03:54:47.845Z,95.60
2019-03-27T03:57:15.755Z,95.70
2019-03-27T04:00:03.265Z,96.40
2019-03-27T04:02:31.491Z,95.90
2019-03-27T04:04:59.713Z,95.60
2019-03-27T04:07:27.719Z,95.60
2019-03-27T04:09:55.864Z,95.80
2019-03-27T04:12:23.850Z,95.70
2019-03-27T04:14:52.002Z,95.90
2019-03-27T04:17:39.348Z,95.60
2019-03-27T04:20:07.452Z,95.60
2019-03-27T04:22:54.838Z,95.60
2019-03-27T04:25:23.169Z,95.40
2019-03-27T04:27:51.193Z,95.60
2019-03-27T04:30:19.317Z,95.70
2019-03-27T04:33:06.456Z,95.90
2019-03-27T04:35:34.949Z,95.50
2019-03-27T04:38:02.959Z,95.50
2019-03-27T04:40:31.176Z,95.30
2019-03-27T04:42:59.190Z,95.30
2019-03-27T04:45:27.463Z,95.30
2019-03-27T04:48:14.680Z,95.30
2019-03-27T04:50:42.879Z,95.20
2019-03-27T04:53:30.325Z,95.50
2019-03-27T04:56:10.796Z,95.50
2019-03-27T04:58:38.820Z,95.20
2019-03-27T05:01:07.103Z,95.50
2019-03-27T05:03:54.859Z,95.50
2019-03-27T05:06:22.915Z,95.50
2019-03-27T05:08:50.927Z,95.30
2019-03-27T05:11:18.900Z,95.30
2019-03-27T05:13:46.847Z,95.50
2019-03-27T05:16:15.119Z,95.40
2019-03-27T05:18:43.224Z,95.50
2019-03-27T05:21:11.163Z,95.40
2019-03-27T05:23:39.075Z,95.40
2019-03-27T05:26:07.161Z,95.60
2019-03-27T05:28:35.236Z,95.50
2019-03-27T05:31:03.386Z,95.50
2019-03-27T05:33:32.847Z,95.70
2019-03-27T05:36:20.123Z,95.60
2019-03-27T05:38:48.315Z,95.30
2019-03-27T05:41:35.430Z,95.40
2019-03-27T05:44:03.696Z,95.30
2019-03-27T05:46:31.809Z,95.30
2019-03-27T05:49:00.339Z,95.50
2019-03-27T05:51:28.367Z,95.20
2019-03-27T05:54:15.570Z,95.30
2019-03-27T05:56:55.900Z,95.20
2019-03-27T05:59:23.999Z,95.20
2019-03-27T06:01:52.032Z,95.50
2019-03-27T06:04:20.327Z,95.30
2019-03-27T06:06:48.513Z,95.50
2019-03-27T06:09:16.567Z,95.60
2019-03-27T06:11:56.973Z,95.50
2019-03-27T06:17:09.888Z,95.30
2019-03-27T06:19:57.186Z,95.50
2019-03-27T06:22:25.266Z,95.70
2019-03-27T06:25:12.507Z,95.80
2019-03-27T06:27:40.750Z,95.80
2019-03-27T06:30:09.132Z,95.80
2019-03-27T06:32:37.117Z,95.70
2019-03-27T06:35:06.015Z,95.40
2019-03-27T06:37:34.227Z,95.70
2019-03-27T06:40:21.425Z,96.50
2019-03-27T06:42:49.751Z,96.60
2019-03-27T06:45:17.866Z,96.70
2019-03-27T06:47:45.917Z,96.40
2019-03-27T06:50:14.084Z,96.70
2019-03-27T06:53:01.380Z,96.20
2019-03-27T06:55:29.986Z,96.20
2019-03-27T06:57:58.065Z,96.60
2019-03-27T07:00:33.620Z,96.30
2019-03-27T07:03:01.759Z,96.00
2019-03-27T07:05:30.845Z,96.40
2019-03-27T07:07:59.235Z,96.70
2019-03-27T07:10:27.434Z,97.20
2019-03-27T07:12:55.708Z,96.60
2019-03-27T07:15:23.805Z,97.40
2019-03-27T07:17:51.953Z,96.90
2019-03-27T07:20:41.065Z,96.80
2019-03-27T07:23:09.299Z,96.90
2019-03-27T07:25:37.370Z,96.90
2019-03-27T07:28:05.463Z,96.90
2019-03-27T07:30:52.790Z,96.90
2019-03-27T07:33:20.833Z,96.60
2019-03-27T07:35:48.920Z,97.10
2019-03-27T07:38:17.149Z,96.80
2019-03-27T07:40:45.399Z,96.50
2019-03-27T07:43:13.432Z,96.40
2019-03-27T07:45:41.484Z,96.70
2019-03-27T07:48:09.868Z,96.80
2019-03-27T07:50:37.960Z,96.10
2019-03-27T07:53:08.024Z,96.70
2019-03-27T07:55:36.388Z,96.40
2019-03-27T07:58:04.735Z,96.10
2019-03-27T08:00:32.779Z,96.30
2019-03-27T08:03:00.840Z,96.30
2019-03-27T08:05:28.993Z,96.20
2019-03-27T08:07:57.361Z,96.20
2019-03-27T08:10:25.364Z,96.00
2019-03-27T08:12:53.350Z,96.20
2019-03-27T08:15:21.657Z,96.00
2019-03-27T08:17:49.634Z,95.90
2019-03-27T08:20:18.266Z,95.90
2019-03-27T08:22:46.311Z,95.60
2019-03-27T08:25:33.827Z,95.20
2019-03-27T08:28:01.893Z,95.40
2019-03-27T08:30:29.961Z,95.40
2019-03-27T08:32:58.313Z,95.60
2019-03-27T08:35:26.424Z,95.40
2019-03-27T08:37:54.487Z,95.30
2019-03-27T08:40:22.693Z,95.40
2019-03-27T08:42:50.776Z,95.20
2019-03-27T08:45:18.724Z,95.00
2019-03-27T08:47:46.808Z,95.00
2019-03-27T08:50:34.869Z,95.20
2019-03-27T08:53:02.879Z,94.80
2019-03-27T08:55:31.154Z,94.60
2019-03-27T08:57:59.830Z,94.30
2019-03-27T09:00:50.239Z,94.90
2019-03-27T09:03:18.519Z,94.60
2019-03-27T09:05:46.794Z,94.80
2019-03-27T09:08:14.886Z,94.80
2019-03-27T09:11:04.695Z,94.70
2019-03-27T09:13:32.180Z,94.40
2019-03-27T09:16:00.377Z,94.30
2019-03-27T09:18:28.640Z,94.50
2019-03-27T09:20:56.701Z,94.40
2019-03-27T09:23:24.739Z,94.20
2019-03-27T09:25:53.045Z,94.20
2019-03-27T09:28:21.161Z,93.90
2019-03-27T09:30:49.305Z,94.20
2019-03-27T09:33:17.374Z,93.60
2019-03-27T09:35:45.722Z,93.00
2019-03-27T09:38:13.887Z,93.50
2019-03-27T09:40:41.934Z,93.10
2019-03-27T09:43:29.157Z,93.00
2019-03-27T09:45:57.410Z,92.40
2019-03-27T09:48:25.490Z,92.70
2019-03-27T09:50:53.511Z,92.80
2019-03-27T09:53:21.688Z,92.90
2019-03-27T09:55:50.062Z,93.30
2019-03-27T09:58:18.111Z,93.00
2019-03-27T10:01:04.862Z,92.20
2019-03-27T10:03:32.912Z,92.20
2019-03-27T10:06:00.827Z,92.50
2019-03-27T10:08:28.885Z,93.10
2019-03-27T10:10:57.155Z,92.70
2019-03-27T10:13:44.584Z,92.40
2019-03-27T10:16:31.747Z,91.20
2019-03-27T10:19:12.245Z,92.30
2019-03-27T10:21:40.409Z,92.30
2019-03-27T10:24:08.349Z,92.30
2019-03-27T10:26:36.737Z,92.40
2019-03-27T10:29:04.866Z,92.60
2019-03-27T10:31:32.984Z,92.60
2019-03-27T10:34:01.094Z,92.80
2019-03-27T10:36:29.348Z,92.00
2019-03-27T10:38:57.460Z,91.80
2019-03-27T10:41:25.435Z,92.40
2019-03-27T10:43:53.393Z,91.90
2019-03-27T10:46:40.592Z,92.00
2019-03-27T10:49:08.648Z,92.40
2019-03-27T10:51:36.583Z,92.40
2019-03-27T10:54:04.955Z,92.60
2019-03-27T10:56:33.015Z,92.40
2019-03-27T10:59:01.333Z,92.40
2019-03-27T11:01:48.612Z,92.60
2019-03-27T11:04:16.972Z,92.60
2019-03-27T11:06:45.024Z,92.50
2019-03-27T11:09:13.308Z,91.80
2019-03-27T11:11:41.375Z,91.60
2019-03-27T11:14:09.612Z,92.20
2019-03-27T11:16:37.604Z,92.20
2019-03-27T11:19:24.741Z,91.50
2019-03-27T11:21:52.762Z,91.80
2019-03-27T11:24:20.679Z,91.40
2019-03-27T11:26:48.849Z,91.60
2019-03-27T11:29:17.011Z,91.50
2019-03-27T11:31:44.834Z,91.10
2019-03-27T11:34:12.967Z,91.50
2019-03-27T11:36:41.225Z,91.10
2019-03-27T11:39:28.319Z,91.70
2019-03-27T11:41:56.462Z,91.50
2019-03-27T11:44:24.457Z,91.30
2019-03-27T11:46:52.421Z,91.80
2019-03-27T11:49:20.443Z,90.50
2019-03-27T11:51:48.783Z,91.00
2019-03-27T11:54:17.069Z,90.80
2019-03-27T11:56:45.062Z,91.00
2019-03-27T11:59:13.045Z,91.10
2019-03-27T12:02:00.295Z,90.00
2019-03-27T12:04:28.350Z,91.00
2019-03-27T12:06:57.084Z,90.20
2019-03-27T12:09:25.405Z,90.60
2019-03-27T12:11:53.646Z,88.90
2019-03-27T12:14:40.818Z,89.80
2019-03-27T12:17:08.888Z,89.70
2019-03-27T12:19:37.980Z,87.10
2019-03-27T12:22:25.610Z,89.90
2019-03-27T12:27:51.015Z,87.10
2019-03-27T12:33:04.171Z,87.20
2019-03-27T12:35:32.245Z,88.00
2019-03-27T12:38:00.587Z,86.80
2019-03-27T12:40:28.999Z,88.50
2019-03-27T12:42:57.032Z,84.30
2019-03-27T12:45:25.584Z,85.90
2019-03-27T12:47:53.848Z,85.30
2019-03-27T12:50:22.087Z,85.50
2019-03-27T12:52:50.191Z,84.80
2019-03-27T12:55:18.564Z,83.60
2019-03-27T12:57:46.843Z,85.20
2019-03-27T13:00:14.990Z,85.00
2019-03-27T13:02:43.082Z,84.20
2019-03-27T13:05:11.284Z,82.20
2019-03-27T13:07:58.702Z,82.70
2019-03-27T13:10:26.897Z,79.80
2019-03-27T13:12:55.003Z,79.90
2019-03-27T13:15:22.977Z,82.90
2019-03-27T13:17:51.135Z,82.80
2019-03-27T13:20:19.116Z,83.10
2019-03-27T13:22:47.314Z,83.30
2019-03-27T13:25:15.890Z,81.70
2019-03-27T13:27:43.895Z,84.30
2019-03-27T13:30:12.054Z,82.20
2019-03-27T13:32:40.295Z,82.10
2019-03-27T13:35:27.590Z,80.40
2019-03-27T13:38:14.862Z,79.90
2019-03-27T13:40:42.917Z,80.30
2019-03-27T13:43:11.316Z,80.70
2019-03-27T13:45:39.367Z,81.20
2019-03-27T13:48:07.508Z,77.60
2019-03-27T13:50:35.605Z,76.90
2019-03-27T13:53:03.695Z,79.60
2019-03-27T13:55:34.923Z,79.50
2019-03-27T13:58:02.348Z,76.30
2019-03-27T14:00:30.578Z,76.30
2019-03-27T14:02:58.763Z,74.90
2019-03-27T14:05:26.910Z,79.70
2019-03-27T14:07:55.298Z,75.00
2019-03-27T14:10:44.563Z,77.30
2019-03-27T14:13:12.697Z,76.00
2019-03-27T14:15:40.857Z,77.50
2019-03-27T14:18:09.144Z,77.10
2019-03-27T14:20:37.194Z,77.10
2019-03-27T14:23:05.269Z,77.40
2019-03-27T14:25:33.344Z,76.30
2019-03-27T14:28:01.394Z,80.20
2019-03-27T14:30:52.171Z,78.50
2019-03-27T14:33:20.752Z,79.00
2019-03-27T14:35:48.809Z,81.00
2019-03-27T14:38:16.921Z,80.10
2019-03-27T14:40:44.952Z,79.70
2019-03-27T14:43:13.219Z,80.50
2019-03-27T14:45:43.631Z,81.40
2019-03-27T14:48:17.480Z,78.60
2019-03-27T14:51:04.895Z,80.40
2019-03-27T14:53:33.182Z,80.60
2019-03-27T14:56:04.890Z,81.60
2019-03-27T14:58:32.924Z,82.70
2019-03-27T15:01:00.904Z,82.60
2019-03-27T15:03:29.169Z,81.50
2019-03-27T15:05:57.444Z,82.40
2019-03-27T15:08:25.442Z,81.70
2019-03-27T15:10:53.495Z,83.60
2019-03-27T15:13:21.737Z,83.30
2019-03-27T15:16:00.793Z,83.10
2019-03-27T15:18:28.974Z,84.40
2019-03-27T15:20:57.089Z,85.50
2019-03-27T15:23:25.243Z,85.10
2019-03-27T15:25:53.322Z,86.30
2019-03-27T15:28:21.579Z,86.60
2019-03-27T15:30:49.534Z,87.20
2019-03-27T15:33:17.704Z,85.30
2019-03-27T15:35:45.772Z,84.00
2019-03-27T15:38:13.937Z,84.20
2019-03-27T15:40:43.390Z,80.40
2019-03-27T15:43:11.504Z,82.00
2019-03-27T15:45:39.768Z,79.70
2019-03-27T15:48:08.082Z,81.20
2019-03-27T15:50:36.096Z,80.60
2019-03-27T15:53:04.241Z,78.00
2019-03-27T15:55:35.678Z,78.40
2019-03-27T15:58:03.815Z,77.20
2019-03-27T16:00:33.438Z,78.50
2019-03-27T16:03:01.845Z,78.70
2019-03-27T16:05:30.129Z,80.40
2019-03-27T16:07:58.211Z,81.70
2019-03-27T16:10:26.308Z,79.30
2019-03-27T16:12:54.664Z,79.70
2019-03-27T16:15:22.887Z,81.80
2019-03-27T16:17:50.969Z,80.40
2019-03-27T16:20:19.229Z,82.50
2019-03-27T16:22:51.032Z,81.80
2019-03-27T16:28:04.197Z,81.70
2019-03-27T16:30:32.395Z,83.20
2019-03-27T16:33:00.562Z,83.00
2019-03-27T16:35:47.903Z,82.50
2019-03-27T16:38:15.933Z,84.60
2019-03-27T16:40:47.552Z,85.60
2019-03-27T16:43:16.405Z,85.90
2019-03-27T16:46:03.729Z,85.80
2019-03-27T16:48:32.056Z,86.00
2019-03-27T16:51:19.293Z,86.50
2019-03-27T16:53:47.550Z,86.90
2019-03-27T16:56:15.611Z,88.20
2019-03-27T16:58:43.626Z,88.30
2019-03-27T17:01:13.680Z,89.00
2019-03-27T17:03:41.675Z,89.20
2019-03-27T17:06:09.728Z,89.60
2019-03-27T17:08:37.776Z,90.30
2019-03-27T17:11:05.910Z,90.20
2019-03-27T17:13:35.364Z,90.30
2019-03-27T17:16:11.838Z,90.40
2019-03-27T17:18:39.811Z,90.60
2019-03-27T17:21:07.940Z,90.90
2019-03-27T17:23:35.977Z,90.60
2019-03-27T17:26:04.039Z,90.10
2019-03-27T17:28:51.150Z,90.40
2019-03-27T17:31:19.391Z,90.20
2019-03-27T17:33:47.564Z,90.30
2019-03-27T17:36:15.613Z,90.20
2019-03-27T17:38:43.725Z,90.30
2019-03-27T17:41:11.956Z,90.30
2019-03-27T17:43:40.100Z,90.10
2019-03-27T17:46:08.366Z,90.40
2019-03-27T17:48:36.568Z,90.20
2019-03-27T17:51:04.607Z,90.00
2019-03-27T17:53:33.726Z,89.40
2019-03-27T17:56:01.643Z,89.60
2019-03-27T17:58:29.715Z,89.40
2019-03-27T18:01:00.722Z,90.10
2019-03-27T18:03:28.898Z,89.50
2019-03-27T18:06:16.108Z,89.40
2019-03-27T18:08:44.146Z,89.50
2019-03-27T18:11:12.422Z,88.90
2019-03-27T18:13:40.671Z,88.40
2019-03-27T18:16:08.746Z,89.30
2019-03-27T18:18:37.134Z,89.40
2019-03-27T18:21:05.356Z,90.10
2019-03-27T18:23:45.246Z,89.40
2019-03-27T18:26:03.458Z,89.70
2019-03-27T18:28:50.659Z,88.80
2019-03-27T18:31:19.017Z,89.40
2019-03-27T18:33:47.346Z,88.60
2019-03-27T18:36:15.391Z,89.40
2019-03-27T18:38:45.871Z,89.40
2019-03-27T18:41:13.430Z,90.20
2019-03-27T18:43:41.423Z,89.70
2019-03-27T18:46:28.629Z,89.20
2019-03-27T18:48:56.612Z,89.40
2019-03-27T18:51:24.543Z,90.00
2019-03-27T18:53:59.664Z,90.10
2019-03-27T18:56:22.741Z,90.00
2019-03-27T18:58:52.349Z,90.20
2019-03-27T19:01:39.833Z,90.30
2019-03-27T19:04:20.808Z,90.10
2019-03-27T19:06:48.811Z,90.20
2019-03-27T19:09:16.950Z,90.40
2019-03-27T19:12:04.136Z,90.40
2019-03-27T19:14:51.358Z,90.40
2019-03-27T19:17:19.705Z,90.50
2019-03-27T19:19:47.806Z,90.70
2019-03-27T19:22:15.874Z,90.80
2019-03-27T19:24:43.928Z,90.90
2019-03-27T19:27:11.870Z,90.60
2019-03-27T19:29:40.067Z,90.80
2019-03-27T19:32:08.351Z,90.90
2019-03-27T19:34:36.435Z,91.10
2019-03-27T19:37:04.472Z,91.10
2019-03-27T19:39:32.689Z,91.20
2019-03-27T19:42:00.691Z,91.60
2019-03-27T19:44:28.707Z,91.30
2019-03-27T19:46:56.763Z,91.40
2019-03-27T19:49:24.731Z,91.40
2019-03-27T19:51:53.098Z,91.70
2019-03-27T19:54:27.443Z,91.50
2019-03-27T19:56:54.447Z,91.70
2019-03-27T19:59:22.673Z,91.90
2019-03-27T20:01:50.926Z,92.00
2019-03-27T20:04:19.067Z,92.00
2019-03-27T20:06:47.013Z,92.40
2019-03-27T20:09:15.165Z,92.50
2019-03-27T20:11:43.299Z,92.20
2019-03-27T20:14:11.554Z,92.40
2019-03-27T20:16:39.576Z,92.40
2019-03-27T20:19:07.588Z,92.10
2019-03-27T20:21:35.598Z,92.20
2019-03-27T20:24:03.754Z,92.90
2019-03-27T20:26:32.006Z,92.60
2019-03-27T20:29:00.047Z,92.60
2019-03-27T20:31:47.456Z,92.60
2019-03-27T20:34:15.507Z,93.10
2019-03-27T20:36:43.571Z,93.30
2019-03-27T20:39:11.963Z,92.80
2019-03-27T20:41:40.324Z,92.80
2019-03-27T20:44:08.322Z,93.00
2019-03-27T20:46:36.660Z,92.90
2019-03-27T20:49:04.736Z,92.80
2019-03-27T20:51:32.937Z,93.10
2019-03-27T20:54:01.602Z,93.30
2019-03-27T20:56:29.934Z,92.90
2019-03-27T20:59:01.171Z,92.90
2019-03-27T21:01:40.680Z,93.10
2019-03-27T21:04:08.527Z,92.80
2019-03-27T21:06:36.779Z,93.40
2019-03-27T21:09:05.787Z,93.70
2019-03-27T21:11:34.146Z,93.40
2019-03-27T21:14:02.192Z,93.10
2019-03-27T21:16:30.212Z,93.00
2019-03-27T21:18:58.570Z,93.20
2019-03-27T21:21:26.800Z,93.30
2019-03-27T21:24:14.063Z,93.20
2019-03-27T21:26:42.144Z,92.90
2019-03-27T21:29:10.504Z,93.80
2019-03-27T21:31:38.772Z,93.50
2019-03-27T21:34:08.546Z,93.70
2019-03-27T21:36:56.384Z,93.60
2019-03-27T21:39:26.022Z,93.70
2019-03-27T21:41:54.419Z,93.60
2019-03-27T21:44:22.444Z,93.60
2019-03-27T21:46:50.692Z,93.80
2019-03-27T21:49:18.728Z,93.20
2019-03-27T21:51:47.118Z,93.60
2019-03-27T21:54:34.301Z,93.30
2019-03-27T21:57:02.433Z,93.60
2019-03-27T21:59:30.476Z,94.20
2019-03-27T22:02:12.404Z,93.60
2019-03-27T22:04:54.082Z,93.60
2019-03-27T22:07:34.590Z,93.50
2019-03-27T22:10:02.787Z,93.80
2019-03-27T22:12:31.032Z,93.60
2019-03-27T22:15:18.271Z,93.60
2019-03-27T22:17:46.362Z,93.40
2019-03-27T22:20:33.590Z,93.60
2019-03-27T22:23:01.656Z,93.50
2019-03-27T22:25:48.865Z,93.50
2019-03-27T22:28:16.941Z,93.50
2019-03-27T22:31:04.209Z,93.70
2019-03-27T22:33:32.300Z,94.10
2019-03-27T22:36:00.469Z,94.00
2019-03-27T22:38:28.746Z,93.80
2019-03-27T22:40:56.774Z,94.20
2019-03-27T22:43:24.840Z,93.70
2019-03-27T22:45:53.175Z,94.30
2019-03-27T22:48:21.330Z,93.70
2019-03-27T22:50:49.410Z,93.80
2019-03-27T22:53:17.511Z,93.80
2019-03-27T22:55:50.135Z,93.70
2019-03-27T22:58:15.543Z,93.50
2019-03-27T23:00:46.659Z,93.80
2019-03-27T23:03:18.414Z,93.80
2019-03-27T23:05:45.594Z,94.30
2019-03-27T23:08:13.636Z,94.00
2019-03-27T23:11:00.895Z,94.10
2019-03-27T23:13:29.043Z,93.60
2019-03-27T23:15:57.016Z,93.80
2019-03-27T23:18:25.225Z,94.20
2019-03-27T23:20:53.539Z,93.90
2019-03-27T23:23:21.575Z,94.50
2019-03-27T23:26:02.240Z,94.20
2019-03-27T23:28:38.765Z,94.30
2019-03-27T23:31:26.430Z,94.20
2019-03-27T23:33:54.565Z,94.20
2019-03-27T23:36:22.648Z,94.80
2019-03-27T23:39:09.860Z,94.10
2019-03-27T23:41:38.089Z,94.30
2019-03-27T23:44:06.071Z,94.30
2019-03-27T23:46:34.651Z,94.50
2019-03-27T23:49:02.873Z,94.20
2019-03-27T23:51:30.898Z,94.10
2019-03-27T23:53:58.929Z,94.40
2019-03-27T23:56:27.225Z,94.30
2019-03-27T23:58:55.317Z,94.80
